Portland-Troutdale, OR

6:19 PM PDT on August 22, 2014 (GMT -0700)
Portland-Troutdale | Change Station
CLOSE
Current Station
Airport
Location: Portland Troutdale,
Elevation: 36 ft
Nearby Weather Stations

Elev 36 ft 45.55 °N, 122.41 °W | Updated 26 minutes ago

Clear
Clear
81 °F
Feels Like 81 °F
N
5
Wind Variable Wind from Variable

Today
High -- | Low -- °F
--% Chance of Precip.
Yesterday
High -- | Low -- °F
Precip. -- in
6:18 AM 8:05 PM
Waning Crescent, 6% visible
Pressure 29.98 in
Visibility 10.0 miles
Clouds Clear
Dew Point 51 °F
Humidity 35%
Rainfall 0.00 in
Snow Depth 0 in
UV 2 out of 12
Pollen 3.50 out of 12
Ozone Good
PM2.5 Good
Flu Activity Not available.
METAR KTTD 230053Z VRB04KT 10SM CLR 27/11 A2998 RMK AO2 SLP151 T02720106

More Conditions Fewer Conditions

Pressure 29.98 in
Visibility 10.0 miles
Clouds Clear
Dew Point 51 °F
Humidity 35%
Rainfall 0.00 in
Snow Depth 0 in
UV 2 out of 12
Pollen 3.50 out of 12
Ozone Good
PM2.5 Good
Flu Activity Not available.
METAR KTTD 230053Z VRB04KT 10SM CLR 27/11 A2998 RMK AO2 SLP151 T02720106

More Conditions Fewer Conditions

10-Day Weather Forecast

Almanac

Astronomy

Aug. 22, 2014 Rise Set
Actual Time 6:18 AM PDT 8:05 PM PDT
Civil Twilight 5:47 AM PDT 8:36 PM PDT
Nautical Twilight 5:08 AM PDT 9:14 PM PDT
Astronomical Twilight 4:26 AM PDT 9:56 PM PDT
Moon 3:42 AM PDT (8/22) 6:19 PM PDT (8/22)
Length of Visible Light 14h 49m
Length of Day
13h 46m
Tomorrow will be 2m 58s shorter.
Waning Crescent, 6% of the Moon is Illuminated
Today
Waning Crescent
Aug 25
New
Sep 2
First Quarter
Sep 8
Full
Sep 15
Last Quarter

Today's Extremes

State Highs State Lows

Community

WunderPhotos

Upload Photos

1,746,337 photos uploaded!

WunderBlogs® & News

Nearby

Air Quality

  Air Quality AQ Index Pollutant
Yesterday Good
OZONE
Yesterday Good
PM2.5
Current Good
OZONE
Current Good
PM2.5
Friday Good
PM2.5
Saturday Good
PM2.5

Snow Depth

Station Depth Elevation
North Fork 0 in 3120 ft
Blazed Alder 0 in 3650 ft
Greenpoint 0 in 3200 ft
Clear Lake 0 in 3500 ft
Peavine Ridge 0 in 3500 ft

Earthquake Activity

City Distance Mag. Time & Date
No recent earthquake activity has been reported nearby.
Minimum magnitude displayed is 2.5.

Coastal Water Temperatures

Place Temperature
No Stations Reporting

Nearby Weather Stations